createdAt,value
2018-04-24T00:01:22.028Z,61.70
2018-04-24T00:03:51.077Z,62.30
2018-04-24T00:06:20.167Z,62.60
2018-04-24T00:08:49.204Z,62.90
2018-04-24T00:11:18.240Z,63.00
2018-04-24T00:13:47.339Z,63.20
2018-04-24T00:16:16.369Z,63.20
2018-04-24T00:18:45.390Z,63.00
2018-04-24T00:21:15.424Z,63.00
2018-04-24T00:23:44.414Z,62.90
2018-04-24T00:26:13.482Z,63.00
2018-04-24T00:28:42.514Z,63.00
2018-04-24T00:31:11.534Z,63.20
2018-04-24T00:33:40.586Z,63.30
2018-04-24T00:36:09.641Z,63.50
2018-04-24T00:38:39.438Z,63.60
2018-04-24T00:41:08.519Z,63.40
2018-04-24T00:43:37.537Z,63.30
2018-04-24T00:46:07.344Z,63.00
2018-04-24T00:48:36.424Z,63.00
2018-04-24T00:51:05.458Z,63.00
2018-04-24T00:53:40.397Z,63.00
2018-04-24T00:56:09.434Z,63.10
2018-04-24T00:58:38.506Z,63.00
2018-04-24T01:01:07.546Z,63.00
2018-04-24T01:03:36.611Z,62.80
2018-04-24T01:06:05.621Z,63.00
2018-04-24T01:08:34.674Z,63.10
2018-04-24T01:11:03.710Z,63.50
2018-04-24T01:13:32.760Z,63.90
2018-04-24T01:16:01.773Z,63.90
2018-04-24T01:18:30.863Z,64.00
2018-04-24T01:20:59.891Z,64.00
2018-04-24T01:23:28.919Z,63.90
2018-04-24T01:25:58.249Z,64.00
2018-04-24T01:28:27.278Z,63.70
2018-04-24T01:30:56.301Z,63.60
2018-04-24T01:33:25.357Z,63.50
2018-04-24T01:35:54.410Z,63.40
2018-04-24T01:38:23.435Z,63.30
2018-04-24T01:40:52.485Z,63.40
2018-04-24T01:43:21.526Z,63.40
2018-04-24T01:45:50.571Z,63.40
2018-04-24T01:48:19.597Z,63.30
2018-04-24T01:50:48.684Z,63.40
2018-04-24T01:53:18.622Z,63.20
2018-04-24T01:55:49.618Z,63.10
2018-04-24T01:58:19.747Z,63.20
2018-04-24T02:00:48.777Z,63.20
2018-04-24T02:03:17.849Z,63.20
2018-04-24T02:05:46.879Z,63.50
2018-04-24T02:08:16.728Z,64.50
2018-04-24T02:10:45.748Z,63.70
2018-04-24T02:13:14.831Z,64.40
2018-04-24T02:15:43.854Z,64.50
2018-04-24T02:18:12.877Z,64.70
2018-04-24T02:20:41.955Z,65.20
2018-04-24T02:23:10.978Z,66.00
2018-04-24T02:25:39.992Z,66.10
2018-04-24T02:28:09.050Z,66.10
2018-04-24T02:30:38.091Z,66.00
2018-04-24T02:33:07.141Z,66.40
2018-04-24T02:35:36.178Z,66.60
2018-04-24T02:38:05.242Z,66.40
2018-04-24T02:40:34.291Z,66.20
2018-04-24T02:43:03.371Z,66.20
2018-04-24T02:45:32.395Z,66.30
2018-04-24T02:48:02.187Z,66.00
2018-04-24T02:50:31.279Z,65.90
2018-04-24T02:53:00.333Z,65.90
2018-04-24T02:55:29.371Z,66.10
2018-04-24T02:57:58.461Z,66.10
2018-04-24T03:00:27.521Z,66.10
2018-04-24T03:02:56.563Z,66.30
2018-04-24T03:05:26.386Z,66.50
2018-04-24T03:07:56.178Z,66.10
2018-04-24T03:10:25.243Z,66.00
2018-04-24T03:12:54.287Z,66.20
2018-04-24T03:15:24.109Z,66.60
2018-04-24T03:17:53.139Z,66.60
2018-04-24T03:20:22.206Z,66.80
2018-04-24T03:22:51.231Z,66.80
2018-04-24T03:25:20.300Z,66.70
2018-04-24T03:27:49.317Z,66.40
2018-04-24T03:30:18.378Z,66.30
2018-04-24T03:32:47.429Z,66.40
2018-04-24T03:35:16.498Z,66.50
2018-04-24T03:37:45.540Z,66.40
2018-04-24T03:40:14.590Z,66.40
2018-04-24T03:42:43.630Z,66.30
2018-04-24T03:45:13.487Z,66.00
2018-04-24T03:47:42.510Z,66.00
2018-04-24T03:50:11.554Z,65.90
2018-04-24T03:52:40.600Z,65.90
2018-04-24T03:55:09.714Z,66.50
2018-04-24T03:57:39.498Z,66.70
2018-04-24T04:00:08.571Z,66.70
2018-04-24T04:02:37.620Z,66.80
2018-04-24T04:05:07.496Z,66.20
2018-04-24T04:07:36.559Z,66.20
2018-04-24T04:10:05.618Z,65.80
2018-04-24T04:12:35.227Z,65.40
2018-04-24T04:15:06.411Z,66.10
2018-04-24T04:17:54.746Z,65.20
2018-04-24T04:20:41.839Z,65.70
2018-04-24T04:23:29.174Z,65.70
2018-04-24T04:25:58.233Z,65.60
2018-04-24T04:28:27.308Z,65.90
2018-04-24T04:30:57.276Z,66.00
2018-04-24T04:33:26.301Z,66.30
2018-04-24T04:35:55.501Z,66.40
2018-04-24T04:38:24.526Z,66.60
2018-04-24T04:40:54.325Z,66.60
2018-04-24T04:43:23.866Z,66.60
2018-04-24T04:45:52.897Z,66.50
2018-04-24T04:48:22.000Z,66.80
2018-04-24T04:50:51.053Z,66.80
2018-04-24T04:53:20.091Z,66.70
2018-04-24T04:55:49.966Z,67.00
2018-04-24T04:58:19.017Z,67.00
2018-04-24T05:00:48.054Z,67.30
2018-04-24T05:03:17.234Z,67.50
2018-04-24T05:05:46.726Z,67.40
2018-04-24T05:08:15.771Z,67.50
2018-04-24T05:10:44.811Z,67.40
2018-04-24T05:13:14.636Z,67.00
2018-04-24T05:15:43.670Z,66.90
2018-04-24T05:18:12.735Z,67.20
2018-04-24T05:20:41.769Z,67.20
2018-04-24T05:23:10.810Z,67.00
2018-04-24T05:25:39.858Z,66.80
2018-04-24T05:28:08.909Z,66.90
2018-04-24T05:30:38.001Z,66.80
2018-04-24T05:33:07.071Z,66.80
2018-04-24T05:35:36.860Z,66.80
2018-04-24T05:38:05.939Z,66.80
2018-04-24T05:40:35.004Z,66.40
2018-04-24T05:43:04.102Z,66.00
2018-04-24T05:45:33.146Z,65.60
2018-04-24T05:48:02.979Z,65.30
2018-04-24T05:50:32.075Z,65.30
2018-04-24T05:53:01.131Z,65.00
2018-04-24T05:55:30.162Z,65.10
2018-04-24T05:57:59.987Z,65.50
2018-04-24T06:00:29.020Z,65.40
2018-04-24T06:02:58.129Z,65.50
2018-04-24T06:05:27.251Z,64.70
2018-04-24T06:07:56.359Z,64.40
2018-04-24T06:10:26.167Z,63.50
2018-04-24T06:12:55.233Z,63.50
2018-04-24T06:15:24.337Z,62.90
2018-04-24T06:17:54.151Z,62.90
2018-04-24T06:20:23.255Z,62.20
2018-04-24T06:22:52.330Z,62.10
2018-04-24T06:25:21.421Z,61.40
2018-04-24T06:27:50.446Z,59.30
2018-04-24T06:30:20.233Z,57.60
2018-04-24T06:32:49.309Z,57.60
2018-04-24T06:35:18.383Z,57.60
2018-04-24T06:37:47.431Z,57.00
2018-04-24T06:40:17.267Z,56.40
2018-04-24T06:42:46.288Z,56.40
2018-04-24T06:45:15.359Z,57.00
2018-04-24T06:47:44.502Z,55.10
2018-04-24T06:50:14.238Z,55.90
2018-04-24T06:52:43.291Z,55.80
2018-04-24T06:55:12.352Z,54.40
2018-04-24T06:57:41.389Z,53.10
2018-04-24T07:00:10.438Z,52.30
2018-04-24T07:02:39.533Z,52.70
2018-04-24T07:05:08.580Z,53.10
2018-04-24T07:07:37.676Z,52.80
2018-04-24T07:10:06.771Z,51.70
2018-04-24T07:12:35.868Z,51.80
2018-04-24T07:15:04.961Z,52.20
2018-04-24T07:17:34.055Z,52.10
2018-04-24T07:20:03.097Z,52.50
2018-04-24T07:22:32.163Z,52.40
2018-04-24T07:25:01.967Z,53.10
2018-04-24T07:27:31.062Z,53.00
2018-04-24T07:30:00.136Z,51.40
2018-04-24T07:32:29.246Z,50.40
2018-04-24T07:34:58.296Z,49.00
2018-04-24T07:37:27.378Z,48.90
2018-04-24T07:39:56.436Z,48.50
2018-04-24T07:42:25.520Z,48.70
2018-04-24T07:44:54.571Z,48.70
2018-04-24T07:47:23.599Z,48.50
2018-04-24T07:49:52.668Z,48.10
2018-04-24T07:52:21.721Z,47.70
2018-04-24T07:54:51.513Z,45.50
2018-04-24T07:57:20.679Z,45.50
2018-04-24T07:59:49.741Z,46.00
2018-04-24T08:02:18.779Z,47.70
2018-04-24T08:04:47.854Z,46.40
2018-04-24T08:07:16.931Z,44.70
2018-04-24T08:09:46.015Z,44.50
2018-04-24T08:12:15.069Z,43.90
2018-04-24T08:14:44.139Z,41.70
2018-04-24T08:17:13.186Z,41.60
2018-04-24T08:19:42.263Z,41.60
2018-04-24T08:22:11.292Z,42.20
2018-04-24T08:24:40.372Z,43.00
2018-04-24T08:27:09.470Z,40.90
2018-04-24T08:29:38.585Z,41.60
2018-04-24T08:32:07.639Z,41.00
2018-04-24T08:34:36.799Z,42.50
2018-04-24T08:37:05.837Z,42.80
2018-04-24T08:39:34.905Z,43.00
2018-04-24T08:42:04.002Z,42.90
2018-04-24T08:44:33.078Z,41.80
2018-04-24T08:47:02.132Z,41.30
2018-04-24T08:49:31.181Z,41.50
2018-04-24T08:52:00.246Z,43.40
2018-04-24T08:54:29.283Z,41.70
2018-04-24T08:56:58.350Z,40.00
2018-04-24T08:59:27.381Z,40.90
2018-04-24T09:01:56.498Z,38.70
2018-04-24T09:04:25.877Z,38.20
2018-04-24T09:06:54.952Z,38.40
2018-04-24T09:09:26.053Z,39.80
2018-04-24T09:11:55.141Z,39.20
2018-04-24T09:14:24.185Z,39.10
2018-04-24T09:16:53.252Z,39.20
2018-04-24T09:19:22.290Z,38.00
2018-04-24T09:21:51.355Z,38.60
2018-04-24T09:24:20.378Z,37.20
2018-04-24T09:26:49.451Z,36.80
2018-04-24T09:29:18.496Z,35.60
2018-04-24T09:31:48.322Z,36.00
2018-04-24T09:34:17.375Z,36.00
2018-04-24T09:36:46.446Z,36.90
2018-04-24T09:39:15.474Z,35.60
2018-04-24T09:41:45.309Z,35.90
2018-04-24T09:44:14.358Z,35.90
2018-04-24T09:46:43.447Z,34.90
2018-04-24T09:49:12.527Z,34.70
2018-04-24T09:51:41.608Z,35.00
2018-04-24T09:54:10.676Z,35.00
2018-04-24T09:56:40.513Z,35.80
2018-04-24T09:59:09.599Z,35.80
2018-04-24T10:01:38.651Z,35.10
2018-04-24T10:04:07.701Z,35.70
2018-04-24T10:06:36.820Z,34.10
2018-04-24T10:09:06.677Z,34.50
2018-04-24T10:11:36.583Z,35.10
2018-04-24T10:14:06.387Z,33.00
2018-04-24T10:16:35.440Z,33.00
2018-04-24T10:19:04.539Z,33.60
2018-04-24T10:21:33.591Z,34.60
2018-04-24T10:24:02.659Z,33.40
2018-04-24T10:26:31.763Z,33.40
2018-04-24T10:29:00.817Z,32.20
2018-04-24T10:31:29.849Z,32.70
2018-04-24T10:33:59.017Z,33.20
2018-04-24T10:36:28.101Z,33.10
2018-04-24T10:38:57.243Z,34.50
2018-04-24T10:41:26.289Z,34.40
2018-04-24T10:43:55.381Z,33.60
2018-04-24T10:46:24.423Z,34.50
2018-04-24T10:48:53.562Z,35.10
2018-04-24T10:51:22.622Z,34.30
2018-04-24T10:53:51.754Z,35.00
2018-04-24T10:56:20.831Z,32.60
2018-04-24T10:58:49.881Z,32.60
2018-04-24T11:01:18.975Z,32.10
2018-04-24T11:03:48.071Z,31.80
2018-04-24T11:06:17.242Z,31.80
2018-04-24T11:08:46.289Z,30.50
2018-04-24T11:11:15.339Z,31.90
2018-04-24T11:13:44.434Z,31.80
2018-04-24T11:16:13.696Z,31.90
2018-04-24T11:18:43.551Z,33.60
2018-04-24T11:21:12.594Z,33.50
2018-04-24T11:23:41.664Z,33.30
2018-04-24T11:26:10.924Z,34.80
2018-04-24T11:28:39.962Z,33.90
2018-04-24T11:31:09.056Z,33.60
2018-04-24T11:33:38.522Z,32.70
2018-04-24T11:36:07.896Z,31.80
2018-04-24T11:38:37.015Z,31.80
2018-04-24T11:41:06.205Z,30.60
2018-04-24T11:43:35.238Z,31.30
2018-04-24T11:46:04.270Z,32.40
2018-04-24T11:48:34.322Z,31.00
2018-04-24T11:51:03.364Z,30.80
2018-04-24T11:53:32.396Z,29.20
2018-04-24T11:56:02.007Z,30.20
2018-04-24T11:58:31.381Z,30.50
2018-04-24T12:01:00.796Z,30.50
2018-04-24T12:03:31.073Z,28.70
2018-04-24T12:06:00.267Z,28.60
2018-04-24T12:08:29.303Z,28.40
2018-04-24T12:10:58.382Z,27.40
2018-04-24T12:13:27.482Z,30.10
2018-04-24T12:15:56.591Z,31.10
2018-04-24T12:18:25.635Z,31.50
2018-04-24T12:20:55.199Z,32.70
2018-04-24T12:23:24.298Z,33.40
2018-04-24T12:25:53.323Z,32.20
2018-04-24T12:28:22.407Z,31.20
2018-04-24T12:30:51.440Z,30.20
2018-04-24T12:33:20.480Z,28.70
2018-04-24T12:35:49.558Z,25.70
2018-04-24T12:38:18.578Z,26.10
2018-04-24T12:40:47.678Z,26.40
2018-04-24T12:43:16.701Z,24.70
2018-04-24T12:45:45.762Z,25.50
2018-04-24T12:48:15.011Z,24.80
2018-04-24T12:50:44.050Z,26.90
2018-04-24T12:53:13.297Z,26.30
2018-04-24T12:55:42.371Z,25.60
2018-04-24T12:58:11.405Z,25.00
2018-04-24T13:00:41.243Z,25.80
2018-04-24T13:03:11.026Z,25.00
2018-04-24T13:05:40.134Z,25.00
2018-04-24T13:08:18.810Z,24.80
2018-04-24T13:10:49.736Z,25.90
2018-04-24T13:13:18.765Z,25.30
2018-04-24T13:15:47.794Z,26.00
2018-04-24T13:18:17.650Z,27.40
2018-04-24T13:20:46.682Z,26.80
2018-04-24T13:23:15.727Z,26.50
2018-04-24T13:25:44.872Z,26.30
2018-04-24T13:28:13.858Z,26.20
2018-04-24T13:30:42.900Z,25.10
2018-04-24T13:33:11.967Z,24.40
2018-04-24T13:35:41.022Z,25.70
2018-04-24T13:38:10.177Z,26.40
2018-04-24T13:40:40.037Z,24.80
2018-04-24T13:43:09.246Z,24.80
2018-04-24T13:45:38.969Z,26.10
2018-04-24T13:48:08.491Z,26.10
2018-04-24T13:50:37.525Z,26.50
2018-04-24T13:53:06.548Z,26.30
2018-04-24T13:55:35.639Z,27.30
2018-04-24T13:58:04.715Z,28.30
2018-04-24T14:00:33.755Z,28.00
2018-04-24T14:03:02.823Z,28.70
2018-04-24T14:05:31.927Z,28.10
2018-04-24T14:08:01.136Z,28.00
2018-04-24T14:10:30.163Z,27.90
2018-04-24T14:12:59.322Z,27.10
2018-04-24T14:15:28.350Z,26.90
2018-04-24T14:17:58.282Z,26.90
2018-04-24T14:20:27.303Z,26.90
2018-04-24T14:22:57.229Z,26.40
2018-04-24T14:25:26.986Z,26.10
2018-04-24T14:27:56.085Z,26.10
2018-04-24T14:30:25.145Z,26.70
2018-04-24T14:32:54.222Z,27.50
2018-04-24T14:35:23.250Z,27.90
2018-04-24T14:37:52.437Z,27.60
2018-04-24T14:40:21.502Z,26.00
2018-04-24T14:42:50.569Z,26.00
2018-04-24T14:45:19.610Z,26.20
2018-04-24T14:47:48.822Z,25.90
2018-04-24T14:50:18.633Z,25.20
2018-04-24T14:52:47.664Z,25.20
2018-04-24T14:55:16.713Z,26.20
2018-04-24T14:57:45.836Z,25.00
2018-04-24T15:00:15.808Z,25.30
2018-04-24T15:02:44.993Z,25.40
2018-04-24T15:05:14.060Z,24.30
2018-04-24T15:07:43.142Z,25.30
2018-04-24T15:10:13.052Z,26.10
2018-04-24T15:12:42.096Z,26.10
2018-04-24T15:15:11.166Z,27.40
2018-04-24T15:17:40.199Z,27.00
2018-04-24T15:20:10.399Z,27.00
2018-04-24T15:22:39.537Z,27.30
2018-04-24T15:25:08.595Z,26.70
2018-04-24T15:27:37.629Z,26.30
2018-04-24T15:30:06.690Z,27.70
2018-04-24T15:32:35.747Z,27.80
2018-04-24T15:35:04.847Z,27.50
2018-04-24T15:37:34.642Z,27.80
2018-04-24T15:40:03.746Z,27.80
2018-04-24T15:42:32.908Z,27.70
2018-04-24T15:45:02.995Z,27.70
2018-04-24T15:47:32.193Z,26.70
2018-04-24T15:50:01.279Z,27.80
2018-04-24T15:52:30.323Z,27.80
2018-04-24T15:54:59.496Z,28.50
2018-04-24T15:57:29.352Z,27.80
2018-04-24T15:59:59.142Z,28.40
2018-04-24T16:02:28.287Z,28.40
2018-04-24T16:04:57.643Z,29.10
2018-04-24T16:07:26.813Z,28.50
2018-04-24T16:09:56.282Z,28.50
2018-04-24T16:12:25.535Z,28.50
2018-04-24T16:14:54.888Z,28.00
2018-04-24T16:17:23.970Z,28.50
2018-04-24T16:19:53.063Z,28.20
2018-04-24T16:22:22.101Z,28.60
2018-04-24T16:24:51.701Z,29.00
2018-04-24T16:27:22.220Z,28.30
2018-04-24T16:29:51.304Z,28.30
2018-04-24T16:32:20.342Z,28.10
2018-04-24T16:34:49.394Z,27.40
2018-04-24T16:37:18.531Z,27.90
2018-04-24T16:39:47.650Z,27.30
2018-04-24T16:42:17.521Z,26.40
2018-04-24T16:44:46.900Z,26.30
2018-04-24T16:47:15.981Z,27.30
2018-04-24T16:49:45.047Z,28.10
2018-04-24T16:52:15.031Z,30.00
2018-04-24T16:54:44.178Z,29.90
2018-04-24T16:57:13.337Z,30.30
2018-04-24T16:59:42.669Z,30.90
2018-04-24T17:02:11.919Z,31.70
2018-04-24T17:04:41.074Z,32.60
2018-04-24T17:07:10.183Z,33.50
2018-04-24T17:09:39.322Z,33.30
2018-04-24T17:12:08.383Z,33.00
2018-04-24T17:14:37.455Z,33.30
2018-04-24T17:17:06.534Z,33.20
2018-04-24T17:19:36.301Z,33.40
2018-04-24T17:22:05.355Z,33.90
2018-04-24T17:24:34.420Z,34.20
2018-04-24T17:27:04.239Z,35.40
2018-04-24T17:29:33.434Z,35.40
2018-04-24T17:32:03.190Z,36.10
2018-04-24T17:34:32.209Z,36.80
2018-04-24T17:37:01.327Z,37.70
2018-04-24T17:39:30.833Z,38.30
2018-04-24T17:41:59.870Z,38.50
2018-04-24T17:44:29.836Z,38.60
2018-04-24T17:46:59.005Z,39.40
2018-04-24T17:49:28.052Z,40.10
2018-04-24T17:51:57.117Z,41.10
2018-04-24T17:54:26.137Z,41.70
2018-04-24T17:56:56.210Z,41.80
2018-04-24T17:59:25.229Z,41.80
2018-04-24T18:01:54.268Z,42.60
2018-04-24T18:04:23.337Z,43.70
2018-04-24T18:06:52.388Z,44.70
2018-04-24T18:09:21.457Z,45.20
2018-04-24T18:11:50.515Z,45.90
2018-04-24T18:14:20.347Z,47.30
2018-04-24T18:16:49.388Z,47.20
2018-04-24T18:19:18.462Z,48.10
2018-04-24T18:21:47.501Z,48.70
2018-04-24T18:24:16.565Z,49.00
2018-04-24T18:26:45.594Z,49.50
2018-04-24T18:29:14.667Z,49.80
2018-04-24T18:31:43.696Z,50.20
2018-04-24T18:34:13.546Z,50.90
2018-04-24T18:36:42.596Z,50.80
2018-04-24T18:39:11.659Z,50.90
2018-04-24T18:41:40.711Z,51.20
2018-04-24T18:44:09.832Z,51.70
2018-04-24T18:46:38.849Z,51.80
2018-04-24T18:49:07.881Z,52.20
2018-04-24T18:51:37.635Z,51.80
2018-04-24T18:54:06.708Z,52.40
2018-04-24T18:56:35.738Z,52.30
2018-04-24T18:59:04.798Z,52.70
2018-04-24T19:01:33.830Z,52.90
2018-04-24T19:04:02.873Z,53.20
2018-04-24T19:06:31.909Z,53.50
2018-04-24T19:09:00.998Z,53.40
2018-04-24T19:11:30.029Z,53.70
2018-04-24T19:14:05.486Z,53.90
2018-04-24T19:16:34.535Z,53.90
2018-04-24T19:19:09.348Z,54.70
2018-04-24T19:21:38.390Z,54.60
2018-04-24T19:24:07.504Z,54.70
2018-04-24T19:26:36.583Z,55.00
2018-04-24T19:29:05.618Z,55.30
2018-04-24T19:31:40.177Z,55.60
2018-04-24T19:34:09.966Z,56.10
2018-04-24T19:36:39.038Z,56.40
2018-04-24T19:39:13.653Z,56.40
2018-04-24T19:41:48.171Z,56.40
2018-04-24T19:44:17.196Z,56.50
2018-04-24T19:46:46.215Z,56.80
2018-04-24T19:49:21.709Z,57.20
2018-04-24T19:51:51.374Z,57.10
2018-04-24T19:54:21.017Z,57.30
2018-04-24T19:56:50.565Z,57.50
2018-04-24T19:59:20.128Z,57.80
2018-04-24T20:01:49.670Z,58.10
2018-04-24T20:04:19.727Z,58.20
2018-04-24T20:06:50.021Z,58.40
2018-04-24T20:09:19.538Z,58.30
2018-04-24T20:11:49.050Z,58.40
2018-04-24T20:14:18.198Z,58.40
2018-04-24T20:16:47.256Z,58.60
2018-04-24T20:19:17.205Z,58.70
2018-04-24T20:21:46.267Z,59.10
2018-04-24T20:24:15.302Z,59.10
2018-04-24T20:26:44.375Z,59.10
2018-04-24T20:29:13.413Z,59.10
2018-04-24T20:31:42.462Z,59.10
2018-04-24T20:34:11.496Z,59.30
2018-04-24T20:36:40.566Z,59.40
2018-04-24T20:39:09.598Z,59.50
2018-04-24T20:41:38.650Z,59.80
2018-04-24T20:44:07.673Z,60.00
2018-04-24T20:46:36.780Z,60.30
2018-04-24T20:49:06.596Z,60.50
2018-04-24T20:51:35.611Z,60.50
2018-04-24T20:54:04.675Z,60.70
2018-04-24T20:56:34.461Z,61.00
2018-04-24T20:59:03.519Z,61.00
2018-04-24T21:01:32.550Z,61.30
2018-04-24T21:04:01.978Z,61.30
2018-04-24T21:06:30.998Z,61.40
2018-04-24T21:09:00.429Z,61.20
2018-04-24T21:11:29.623Z,61.10
2018-04-24T21:13:58.688Z,61.40
2018-04-24T21:16:27.801Z,61.50
2018-04-24T21:18:56.865Z,61.70
2018-04-24T21:21:25.911Z,61.90
2018-04-24T21:23:55.070Z,62.00
2018-04-24T21:26:24.178Z,62.00
2018-04-24T21:28:53.247Z,62.00
2018-04-24T21:31:22.312Z,61.70
2018-04-24T21:33:51.411Z,62.00
2018-04-24T21:36:20.482Z,62.10
2018-04-24T21:38:49.994Z,62.20
2018-04-24T21:41:19.529Z,62.60
2018-04-24T21:43:49.023Z,62.60
2018-04-24T21:46:18.103Z,62.50
2018-04-24T21:48:47.319Z,62.40
2018-04-24T21:51:16.481Z,62.80
2018-04-24T21:53:45.909Z,62.80
2018-04-24T21:56:15.042Z,62.60
2018-04-24T21:58:44.346Z,62.30
2018-04-24T22:01:13.555Z,62.30
2018-04-24T22:03:42.822Z,62.40
2018-04-24T22:06:11.944Z,62.50
2018-04-24T22:08:41.043Z,62.40
2018-04-24T22:11:10.080Z,62.50
2018-04-24T22:13:39.106Z,62.50
2018-04-24T22:16:08.216Z,62.60
2018-04-24T22:18:37.251Z,63.80
2018-04-24T22:21:06.377Z,64.00
2018-04-24T22:23:35.418Z,64.30
2018-04-24T22:26:04.465Z,64.00
2018-04-24T22:28:33.580Z,64.30
2018-04-24T22:31:02.883Z,64.70
2018-04-24T22:33:32.033Z,64.70
2018-04-24T22:36:01.124Z,64.90
2018-04-24T22:38:30.199Z,64.80
2018-04-24T22:40:59.273Z,64.80
2018-04-24T22:43:28.321Z,64.70
2018-04-24T22:45:58.113Z,64.50
2018-04-24T22:48:27.205Z,64.50
2018-04-24T22:50:56.234Z,64.50
2018-04-24T22:53:26.021Z,65.20
2018-04-24T22:55:55.090Z,65.00
2018-04-24T22:58:24.111Z,64.80
2018-04-24T23:00:53.934Z,64.50
2018-04-24T23:03:22.967Z,64.30
2018-04-24T23:05:52.041Z,64.30
2018-04-24T23:08:21.106Z,64.50
2018-04-24T23:11:08.650Z,64.70
2018-04-24T23:13:55.513Z,64.70
2018-04-24T23:16:42.348Z,64.60
2018-04-24T23:19:29.216Z,64.50
2018-04-24T23:21:57.503Z,64.30
2018-04-24T23:24:26.551Z,64.50
2018-04-24T23:26:55.623Z,64.40
2018-04-24T23:29:24.659Z,64.30
2018-04-24T23:31:53.732Z,64.50
2018-04-24T23:34:22.767Z,64.50
2018-04-24T23:36:51.826Z,64.30
2018-04-24T23:39:20.853Z,64.40
2018-04-24T23:41:49.923Z,64.60
2018-04-24T23:44:18.975Z,64.70
2018-04-24T23:46:48.034Z,65.00
2018-04-24T23:49:17.085Z,64.90
2018-04-24T23:51:46.127Z,64.50
2018-04-24T23:54:15.198Z,64.40
2018-04-24T23:56:44.255Z,64.30
2018-04-24T23:59:13.292Z,64.40
